sensor_id;sensor_type;location;lat;lon;timestamp;P1;durP1;ratioP1;P2;durP2;ratioP2
16531;SDS011;66872;63.142;14.482;2023-02-01T00:01:22;0.38;;;0.38;;
16531;SDS011;66872;63.142;14.482;2023-02-01T00:03:48;0.50;;;0.50;;
16531;SDS011;66872;63.142;14.482;2023-02-01T00:06:14;0.40;;;0.40;;
16531;SDS011;66872;63.142;14.482;2023-02-01T00:08:39;0.43;;;0.43;;
16531;SDS011;66872;63.142;14.482;2023-02-01T00:11:06;0.40;;;0.40;;
16531;SDS011;66872;63.142;14.482;2023-02-01T00:13:34;0.30;;;0.30;;
16531;SDS011;66872;63.142;14.482;2023-02-01T00:16:05;0.50;;;0.50;;
16531;SDS011;66872;63.142;14.482;2023-02-01T00:18:33;0.50;;;0.50;;
16531;SDS011;66872;63.142;14.482;2023-02-01T00:20:59;0.45;;;0.45;;
16531;SDS011;66872;63.142;14.482;2023-02-01T00:23:25;0.57;;;0.57;;
16531;SDS011;66872;63.142;14.482;2023-02-01T00:25:51;0.40;;;0.40;;
16531;SDS011;66872;63.142;14.482;2023-02-01T00:28:17;0.40;;;0.40;;
16531;SDS011;66872;63.142;14.482;2023-02-01T00:30:43;0.38;;;0.38;;
16531;SDS011;66872;63.142;14.482;2023-02-01T00:33:08;0.38;;;0.38;;
16531;SDS011;66872;63.142;14.482;2023-02-01T00:35:34;0.60;;;0.60;;
16531;SDS011;66872;63.142;14.482;2023-02-01T00:38:00;0.40;;;0.40;;
16531;SDS011;66872;63.142;14.482;2023-02-01T00:40:26;0.30;;;0.30;;
16531;SDS011;66872;63.142;14.482;2023-02-01T00:42:52;0.40;;;0.40;;
16531;SDS011;66872;63.142;14.482;2023-02-01T00:45:18;0.40;;;0.40;;
16531;SDS011;66872;63.142;14.482;2023-02-01T00:47:44;0.50;;;0.50;;
16531;SDS011;66872;63.142;14.482;2023-02-01T00:50:10;0.40;;;0.40;;
16531;SDS011;66872;63.142;14.482;2023-02-01T00:52:36;0.40;;;0.40;;
16531;SDS011;66872;63.142;14.482;2023-02-01T00:55:01;0.57;;;0.57;;
16531;SDS011;66872;63.142;14.482;2023-02-01T00:57:27;0.40;;;0.40;;
16531;SDS011;66872;63.142;14.482;2023-02-01T00:59:53;0.32;;;0.32;;
16531;SDS011;66872;63.142;14.482;2023-02-01T01:02:18;0.40;;;0.40;;
16531;SDS011;66872;63.142;14.482;2023-02-01T01:04:44;0.30;;;0.30;;
16531;SDS011;66872;63.142;14.482;2023-02-01T01:07:10;0.40;;;0.40;;
16531;SDS011;66872;63.142;14.482;2023-02-01T01:09:35;0.40;;;0.40;;
16531;SDS011;66872;63.142;14.482;2023-02-01T01:12:01;0.35;;;0.35;;
16531;SDS011;66872;63.142;14.482;2023-02-01T01:14:30;0.40;;;0.40;;
16531;SDS011;66872;63.142;14.482;2023-02-01T01:16:57;0.30;;;0.30;;
16531;SDS011;66872;63.142;14.482;2023-02-01T01:19:23;0.40;;;0.40;;
16531;SDS011;66872;63.142;14.482;2023-02-01T01:21:48;0.40;;;0.40;;
16531;SDS011;66872;63.142;14.482;2023-02-01T01:24:14;0.43;;;0.43;;
16531;SDS011;66872;63.142;14.482;2023-02-01T01:26:40;0.40;;;0.40;;
16531;SDS011;66872;63.142;14.482;2023-02-01T01:29:05;0.40;;;0.40;;
16531;SDS011;66872;63.142;14.482;2023-02-01T01:31:31;0.50;;;0.50;;
16531;SDS011;66872;63.142;14.482;2023-02-01T01:33:57;0.50;;;0.50;;
16531;SDS011;66872;63.142;14.482;2023-02-01T01:36:24;2.28;;;0.40;;
16531;SDS011;66872;63.142;14.482;2023-02-01T01:38:51;1.08;;;0.50;;
16531;SDS011;66872;63.142;14.482;2023-02-01T01:41:19;0.20;;;0.20;;
16531;SDS011;66872;63.142;14.482;2023-02-01T01:43:51;0.30;;;0.30;;
16531;SDS011;66872;63.142;14.482;2023-02-01T01:46:20;1.35;;;0.50;;
16531;SDS011;66872;63.142;14.482;2023-02-01T01:48:48;0.30;;;0.30;;
16531;SDS011;66872;63.142;14.482;2023-02-01T01:51:21;0.40;;;0.40;;
16531;SDS011;66872;63.142;14.482;2023-02-01T01:53:57;0.77;;;0.40;;
16531;SDS011;66872;63.142;14.482;2023-02-01T01:56:28;0.40;;;0.40;;
16531;SDS011;66872;63.142;14.482;2023-02-01T01:58:56;0.30;;;0.30;;
16531;SDS011;66872;63.142;14.482;2023-02-01T02:01:22;0.40;;;0.40;;
16531;SDS011;66872;63.142;14.482;2023-02-01T02:03:49;0.40;;;0.40;;
16531;SDS011;66872;63.142;14.482;2023-02-01T02:09:29;0.40;;;0.40;;
16531;SDS011;66872;63.142;14.482;2023-02-01T02:11:54;0.30;;;0.30;;
16531;SDS011;66872;63.142;14.482;2023-02-01T02:14:20;0.30;;;0.30;;
16531;SDS011;66872;63.142;14.482;2023-02-01T02:17:06;0.55;;;0.40;;
16531;SDS011;66872;63.142;14.482;2023-02-01T02:34:29;0.30;;;0.30;;
16531;SDS011;66872;63.142;14.482;2023-02-01T02:37:09;0.40;;;0.40;;
16531;SDS011;66872;63.142;14.482;2023-02-01T02:45:13;0.30;;;0.30;;
16531;SDS011;66872;63.142;14.482;2023-02-01T02:48:30;0.40;;;0.40;;
16531;SDS011;66872;63.142;14.482;2023-02-01T02:54:32;0.30;;;0.30;;
16531;SDS011;66872;63.142;14.482;2023-02-01T03:00:05;0.35;;;0.35;;
16531;SDS011;66872;63.142;14.482;2023-02-01T03:02:53;0.50;;;0.50;;
16531;SDS011;66872;63.142;14.482;2023-02-01T03:05:40;0.35;;;0.35;;
16531;SDS011;66872;63.142;14.482;2023-02-01T03:08:15;0.47;;;0.47;;
16531;SDS011;66872;63.142;14.482;2023-02-01T03:13:19;0.25;;;0.25;;
16531;SDS011;66872;63.142;14.482;2023-02-01T03:16:01;0.20;;;0.20;;
16531;SDS011;66872;63.142;14.482;2023-02-01T03:18:45;0.40;;;0.40;;
16531;SDS011;66872;63.142;14.482;2023-02-01T03:21:28;0.25;;;0.25;;
16531;SDS011;66872;63.142;14.482;2023-02-01T03:27:07;0.40;;;0.40;;
16531;SDS011;66872;63.142;14.482;2023-02-01T03:29:59;0.20;;;0.20;;
16531;SDS011;66872;63.142;14.482;2023-02-01T03:32:38;0.30;;;0.30;;
16531;SDS011;66872;63.142;14.482;2023-02-01T03:35:46;0.40;;;0.40;;
16531;SDS011;66872;63.142;14.482;2023-02-01T03:38:32;0.40;;;0.40;;
16531;SDS011;66872;63.142;14.482;2023-02-01T03:41:12;0.40;;;0.40;;
16531;SDS011;66872;63.142;14.482;2023-02-01T03:46:31;0.32;;;0.32;;
16531;SDS011;66872;63.142;14.482;2023-02-01T03:49:04;0.55;;;0.55;;
16531;SDS011;66872;63.142;14.482;2023-02-01T03:51:33;0.40;;;0.40;;
16531;SDS011;66872;63.142;14.482;2023-02-01T03:54:01;0.30;;;0.30;;
16531;SDS011;66872;63.142;14.482;2023-02-01T03:56:28;0.30;;;0.30;;
16531;SDS011;66872;63.142;14.482;2023-02-01T03:58:55;0.40;;;0.40;;
16531;SDS011;66872;63.142;14.482;2023-02-01T04:01:25;0.40;;;0.40;;
16531;SDS011;66872;63.142;14.482;2023-02-01T04:03:55;0.47;;;0.47;;
16531;SDS011;66872;63.142;14.482;2023-02-01T04:06:21;0.40;;;0.40;;
16531;SDS011;66872;63.142;14.482;2023-02-01T04:08:47;0.30;;;0.30;;
16531;SDS011;66872;63.142;14.482;2023-02-01T04:11:13;0.50;;;0.50;;
16531;SDS011;66872;63.142;14.482;2023-02-01T04:13:38;0.40;;;0.40;;
16531;SDS011;66872;63.142;14.482;2023-02-01T04:16:04;0.70;;;0.70;;
16531;SDS011;66872;63.142;14.482;2023-02-01T04:18:30;0.43;;;0.43;;
16531;SDS011;66872;63.142;14.482;2023-02-01T04:20:56;0.40;;;0.40;;
16531;SDS011;66872;63.142;14.482;2023-02-01T04:23:21;0.38;;;0.38;;
16531;SDS011;66872;63.142;14.482;2023-02-01T04:25:47;0.32;;;0.32;;
16531;SDS011;66872;63.142;14.482;2023-02-01T04:28:13;0.40;;;0.40;;
16531;SDS011;66872;63.142;14.482;2023-02-01T04:30:38;0.40;;;0.40;;
16531;SDS011;66872;63.142;14.482;2023-02-01T04:33:04;0.40;;;0.40;;
16531;SDS011;66872;63.142;14.482;2023-02-01T04:35:33;0.40;;;0.40;;
16531;SDS011;66872;63.142;14.482;2023-02-01T04:37:59;0.30;;;0.30;;
16531;SDS011;66872;63.142;14.482;2023-02-01T04:40:24;0.40;;;0.40;;
16531;SDS011;66872;63.142;14.482;2023-02-01T04:42:50;0.40;;;0.40;;
16531;SDS011;66872;63.142;14.482;2023-02-01T04:45:16;0.40;;;0.40;;
16531;SDS011;66872;63.142;14.482;2023-02-01T04:47:41;0.30;;;0.30;;
16531;SDS011;66872;63.142;14.482;2023-02-01T04:50:07;0.30;;;0.30;;
16531;SDS011;66872;63.142;14.482;2023-02-01T04:52:35;0.40;;;0.40;;
16531;SDS011;66872;63.142;14.482;2023-02-01T04:55:02;0.30;;;0.30;;
16531;SDS011;66872;63.142;14.482;2023-02-01T04:57:28;0.30;;;0.30;;
16531;SDS011;66872;63.142;14.482;2023-02-01T04:59:54;0.45;;;0.45;;
16531;SDS011;66872;63.142;14.482;2023-02-01T05:02:19;0.40;;;0.40;;
16531;SDS011;66872;63.142;14.482;2023-02-01T05:04:45;0.30;;;0.30;;
16531;SDS011;66872;63.142;14.482;2023-02-01T05:07:11;0.43;;;0.43;;
16531;SDS011;66872;63.142;14.482;2023-02-01T05:09:37;0.30;;;0.30;;
16531;SDS011;66872;63.142;14.482;2023-02-01T05:12:02;0.40;;;0.40;;
16531;SDS011;66872;63.142;14.482;2023-02-01T05:14:47;0.40;;;0.40;;
16531;SDS011;66872;63.142;14.482;2023-02-01T05:17:13;0.40;;;0.40;;
16531;SDS011;66872;63.142;14.482;2023-02-01T05:19:38;0.22;;;0.22;;
16531;SDS011;66872;63.142;14.482;2023-02-01T05:22:04;0.28;;;0.28;;
16531;SDS011;66872;63.142;14.482;2023-02-01T05:24:29;0.30;;;0.30;;
16531;SDS011;66872;63.142;14.482;2023-02-01T05:26:55;0.40;;;0.40;;
16531;SDS011;66872;63.142;14.482;2023-02-01T05:29:21;0.40;;;0.40;;
16531;SDS011;66872;63.142;14.482;2023-02-01T05:31:47;0.65;;;0.32;;
16531;SDS011;66872;63.142;14.482;2023-02-01T05:34:13;0.68;;;0.50;;
16531;SDS011;66872;63.142;14.482;2023-02-01T05:36:39;0.40;;;0.40;;
16531;SDS011;66872;63.142;14.482;2023-02-01T05:39:05;0.20;;;0.20;;
16531;SDS011;66872;63.142;14.482;2023-02-01T05:41:31;0.40;;;0.40;;
16531;SDS011;66872;63.142;14.482;2023-02-01T05:43:57;1.02;;;0.32;;
16531;SDS011;66872;63.142;14.482;2023-02-01T05:46:23;0.30;;;0.30;;
16531;SDS011;66872;63.142;14.482;2023-02-01T05:48:49;0.40;;;0.40;;
16531;SDS011;66872;63.142;14.482;2023-02-01T05:51:14;0.30;;;0.30;;
16531;SDS011;66872;63.142;14.482;2023-02-01T05:53:40;0.30;;;0.30;;
16531;SDS011;66872;63.142;14.482;2023-02-01T05:56:06;0.40;;;0.40;;
16531;SDS011;66872;63.142;14.482;2023-02-01T05:58:32;0.57;;;0.40;;
16531;SDS011;66872;63.142;14.482;2023-02-01T06:01:01;0.32;;;0.32;;
16531;SDS011;66872;63.142;14.482;2023-02-01T06:03:28;0.40;;;0.40;;
16531;SDS011;66872;63.142;14.482;2023-02-01T06:05:54;0.40;;;0.40;;
16531;SDS011;66872;63.142;14.482;2023-02-01T06:08:20;0.43;;;0.43;;
16531;SDS011;66872;63.142;14.482;2023-02-01T06:10:46;0.30;;;0.30;;
16531;SDS011;66872;63.142;14.482;2023-02-01T06:13:11;0.32;;;0.32;;
16531;SDS011;66872;63.142;14.482;2023-02-01T06:15:37;0.40;;;0.40;;
16531;SDS011;66872;63.142;14.482;2023-02-01T06:18:03;0.60;;;0.60;;
16531;SDS011;66872;63.142;14.482;2023-02-01T06:20:29;2.75;;;1.02;;
16531;SDS011;66872;63.142;14.482;2023-02-01T06:22:55;2.42;;;1.00;;
16531;SDS011;66872;63.142;14.482;2023-02-01T06:25:21;2.08;;;1.13;;
16531;SDS011;66872;63.142;14.482;2023-02-01T06:27:46;1.77;;;1.00;;
16531;SDS011;66872;63.142;14.482;2023-02-01T06:30:13;2.55;;;1.00;;
16531;SDS011;66872;63.142;14.482;2023-02-01T06:32:39;1.10;;;1.00;;
16531;SDS011;66872;63.142;14.482;2023-02-01T06:35:06;3.05;;;1.20;;
16531;SDS011;66872;63.142;14.482;2023-02-01T06:37:33;1.30;;;1.10;;
16531;SDS011;66872;63.142;14.482;2023-02-01T06:40:01;2.20;;;1.00;;
16531;SDS011;66872;63.142;14.482;2023-02-01T06:42:26;2.42;;;1.38;;
16531;SDS011;66872;63.142;14.482;2023-02-01T06:44:52;2.40;;;0.98;;
16531;SDS011;66872;63.142;14.482;2023-02-01T06:47:17;3.58;;;1.10;;
16531;SDS011;66872;63.142;14.482;2023-02-01T06:49:43;1.23;;;0.95;;
16531;SDS011;66872;63.142;14.482;2023-02-01T06:52:09;2.42;;;1.15;;
16531;SDS011;66872;63.142;14.482;2023-02-01T06:54:34;1.35;;;0.90;;
16531;SDS011;66872;63.142;14.482;2023-02-01T06:57:02;0.82;;;0.70;;
16531;SDS011;66872;63.142;14.482;2023-02-01T06:59:28;1.75;;;1.08;;
16531;SDS011;66872;63.142;14.482;2023-02-01T07:01:53;0.80;;;0.80;;
16531;SDS011;66872;63.142;14.482;2023-02-01T07:04:19;1.75;;;0.85;;
16531;SDS011;66872;63.142;14.482;2023-02-01T07:06:45;1.60;;;0.90;;
16531;SDS011;66872;63.142;14.482;2023-02-01T07:09:10;1.48;;;0.60;;
16531;SDS011;66872;63.142;14.482;2023-02-01T07:11:37;0.98;;;0.80;;
16531;SDS011;66872;63.142;14.482;2023-02-01T07:14:06;1.20;;;0.90;;
16531;SDS011;66872;63.142;14.482;2023-02-01T07:16:31;1.45;;;0.80;;
16531;SDS011;66872;63.142;14.482;2023-02-01T07:18:57;1.27;;;0.75;;
16531;SDS011;66872;63.142;14.482;2023-02-01T07:21:24;0.60;;;0.60;;
16531;SDS011;66872;63.142;14.482;2023-02-01T07:23:50;1.65;;;0.70;;
16531;SDS011;66872;63.142;14.482;2023-02-01T07:26:16;1.02;;;0.90;;
16531;SDS011;66872;63.142;14.482;2023-02-01T07:28:41;0.52;;;0.40;;
16531;SDS011;66872;63.142;14.482;2023-02-01T07:31:11;0.65;;;0.60;;
16531;SDS011;66872;63.142;14.482;2023-02-01T07:33:40;1.20;;;0.80;;
16531;SDS011;66872;63.142;14.482;2023-02-01T07:36:07;0.70;;;0.70;;
16531;SDS011;66872;63.142;14.482;2023-02-01T07:38:37;1.42;;;0.70;;
16531;SDS011;66872;63.142;14.482;2023-02-01T07:41:03;1.58;;;0.70;;
16531;SDS011;66872;63.142;14.482;2023-02-01T07:43:30;1.20;;;1.00;;
16531;SDS011;66872;63.142;14.482;2023-02-01T07:45:58;1.60;;;1.23;;
16531;SDS011;66872;63.142;14.482;2023-02-01T07:48:24;1.80;;;1.50;;
16531;SDS011;66872;63.142;14.482;2023-02-01T07:50:57;2.78;;;1.42;;
16531;SDS011;66872;63.142;14.482;2023-02-01T07:53:28;2.28;;;1.48;;
16531;SDS011;66872;63.142;14.482;2023-02-01T07:55:55;2.22;;;1.67;;
16531;SDS011;66872;63.142;14.482;2023-02-01T07:58:21;4.93;;;1.63;;
16531;SDS011;66872;63.142;14.482;2023-02-01T08:00:48;2.13;;;1.50;;
16531;SDS011;66872;63.142;14.482;2023-02-01T08:03:32;1.92;;;1.60;;
16531;SDS011;66872;63.142;14.482;2023-02-01T08:05:57;2.28;;;1.58;;
16531;SDS011;66872;63.142;14.482;2023-02-01T08:08:23;1.70;;;1.48;;
16531;SDS011;66872;63.142;14.482;2023-02-01T08:10:49;3.15;;;1.60;;
16531;SDS011;66872;63.142;14.482;2023-02-01T08:13:15;2.85;;;1.63;;
16531;SDS011;66872;63.142;14.482;2023-02-01T08:15:41;2.50;;;1.60;;
16531;SDS011;66872;63.142;14.482;2023-02-01T08:18:19;2.20;;;1.60;;
16531;SDS011;66872;63.142;14.482;2023-02-01T08:20:45;1.92;;;1.60;;
16531;SDS011;66872;63.142;14.482;2023-02-01T08:23:12;1.92;;;1.50;;
16531;SDS011;66872;63.142;14.482;2023-02-01T08:25:38;1.30;;;1.20;;
16531;SDS011;66872;63.142;14.482;2023-02-01T08:28:06;1.50;;;1.40;;
16531;SDS011;66872;63.142;14.482;2023-02-01T08:30:32;2.10;;;1.52;;
16531;SDS011;66872;63.142;14.482;2023-02-01T08:32:58;1.70;;;1.60;;
16531;SDS011;66872;63.142;14.482;2023-02-01T08:35:23;1.60;;;1.50;;
16531;SDS011;66872;63.142;14.482;2023-02-01T08:37:49;2.10;;;1.65;;
16531;SDS011;66872;63.142;14.482;2023-02-01T08:40:15;1.67;;;1.58;;
16531;SDS011;66872;63.142;14.482;2023-02-01T08:42:42;1.50;;;1.40;;
16531;SDS011;66872;63.142;14.482;2023-02-01T08:45:17;1.60;;;1.50;;
16531;SDS011;66872;63.142;14.482;2023-02-01T08:47:45;1.85;;;1.40;;
16531;SDS011;66872;63.142;14.482;2023-02-01T08:50:12;2.67;;;1.52;;
16531;SDS011;66872;63.142;14.482;2023-02-01T08:52:38;1.85;;;1.73;;
16531;SDS011;66872;63.142;14.482;2023-02-01T08:55:05;2.88;;;1.67;;
16531;SDS011;66872;63.142;14.482;2023-02-01T08:57:32;3.45;;;1.60;;
16531;SDS011;66872;63.142;14.482;2023-02-01T08:59:58;1.50;;;1.40;;
16531;SDS011;66872;63.142;14.482;2023-02-01T09:02:25;1.50;;;1.40;;
16531;SDS011;66872;63.142;14.482;2023-02-01T09:04:50;2.40;;;1.50;;
16531;SDS011;66872;63.142;14.482;2023-02-01T09:07:16;1.58;;;1.40;;
16531;SDS011;66872;63.142;14.482;2023-02-01T09:09:43;2.08;;;1.40;;
16531;SDS011;66872;63.142;14.482;2023-02-01T09:12:09;1.60;;;1.50;;
16531;SDS011;66872;63.142;14.482;2023-02-01T09:14:34;3.53;;;1.60;;
16531;SDS011;66872;63.142;14.482;2023-02-01T09:17:00;1.20;;;1.10;;
16531;SDS011;66872;63.142;14.482;2023-02-01T09:19:26;1.33;;;1.23;;
16531;SDS011;66872;63.142;14.482;2023-02-01T09:23:48;1.40;;;1.30;;
16531;SDS011;66872;63.142;14.482;2023-02-01T09:26:16;1.45;;;1.30;;
16531;SDS011;66872;63.142;14.482;2023-02-01T09:28:42;1.52;;;1.33;;
16531;SDS011;66872;63.142;14.482;2023-02-01T09:31:08;2.17;;;1.13;;
16531;SDS011;66872;63.142;14.482;2023-02-01T09:33:33;1.95;;;1.40;;
16531;SDS011;66872;63.142;14.482;2023-02-01T09:36:01;1.45;;;1.27;;
16531;SDS011;66872;63.142;14.482;2023-02-01T09:38:29;1.38;;;1.17;;
16531;SDS011;66872;63.142;14.482;2023-02-01T09:40:55;3.40;;;1.30;;
16531;SDS011;66872;63.142;14.482;2023-02-01T09:46:31;1.58;;;1.00;;
16531;SDS011;66872;63.142;14.482;2023-02-01T09:49:03;3.28;;;1.20;;
16531;SDS011;66872;63.142;14.482;2023-02-01T09:51:37;1.27;;;1.05;;
16531;SDS011;66872;63.142;14.482;2023-02-01T09:54:25;1.27;;;1.17;;
16531;SDS011;66872;63.142;14.482;2023-02-01T09:59:42;2.80;;;1.10;;
16531;SDS011;66872;63.142;14.482;2023-02-01T10:02:12;1.80;;;1.33;;
16531;SDS011;66872;63.142;14.482;2023-02-01T10:04:44;1.33;;;1.10;;
16531;SDS011;66872;63.142;14.482;2023-02-01T10:10:35;1.55;;;0.98;;
16531;SDS011;66872;63.142;14.482;2023-02-01T10:21:54;1.27;;;1.08;;
16531;SDS011;66872;63.142;14.482;2023-02-01T10:24:37;1.50;;;0.93;;
16531;SDS011;66872;63.142;14.482;2023-02-01T10:29:47;1.10;;;0.82;;
16531;SDS011;66872;63.142;14.482;2023-02-01T10:32:21;1.27;;;0.90;;
16531;SDS011;66872;63.142;14.482;2023-02-01T10:34:55;1.00;;;0.90;;
16531;SDS011;66872;63.142;14.482;2023-02-01T10:39:49;1.45;;;0.90;;
16531;SDS011;66872;63.142;14.482;2023-02-01T10:42:18;4.80;;;1.30;;
16531;SDS011;66872;63.142;14.482;2023-02-01T10:44:46;1.15;;;1.05;;
16531;SDS011;66872;63.142;14.482;2023-02-01T10:47:13;5.38;;;1.15;;
16531;SDS011;66872;63.142;14.482;2023-02-01T10:49:43;1.10;;;1.00;;
16531;SDS011;66872;63.142;14.482;2023-02-01T10:52:59;4.78;;;1.17;;
16531;SDS011;66872;63.142;14.482;2023-02-01T10:55:28;1.67;;;1.00;;
16531;SDS011;66872;63.142;14.482;2023-02-01T10:58:30;1.25;;;1.02;;
16531;SDS011;66872;63.142;14.482;2023-02-01T11:01:04;2.00;;;0.90;;
16531;SDS011;66872;63.142;14.482;2023-02-01T11:06:26;1.00;;;0.90;;
16531;SDS011;66872;63.142;14.482;2023-02-01T11:08:54;0.70;;;0.70;;
16531;SDS011;66872;63.142;14.482;2023-02-01T11:11:22;1.38;;;1.00;;
16531;SDS011;66872;63.142;14.482;2023-02-01T11:13:53;0.90;;;0.85;;
16531;SDS011;66872;63.142;14.482;2023-02-01T11:16:20;1.00;;;0.80;;
16531;SDS011;66872;63.142;14.482;2023-02-01T11:18:46;3.72;;;1.00;;
16531;SDS011;66872;63.142;14.482;2023-02-01T11:21:19;0.98;;;0.70;;
16531;SDS011;66872;63.142;14.482;2023-02-01T11:23:46;1.45;;;1.00;;
16531;SDS011;66872;63.142;14.482;2023-02-01T11:28:49;0.80;;;0.80;;
16531;SDS011;66872;63.142;14.482;2023-02-01T11:31:18;0.82;;;0.82;;
16531;SDS011;66872;63.142;14.482;2023-02-01T11:34:07;0.88;;;0.80;;
16531;SDS011;66872;63.142;14.482;2023-02-01T11:36:32;1.02;;;0.80;;
16531;SDS011;66872;63.142;14.482;2023-02-01T11:41:40;1.45;;;0.70;;
16531;SDS011;66872;63.142;14.482;2023-02-01T11:44:31;0.90;;;0.75;;
16531;SDS011;66872;63.142;14.482;2023-02-01T11:47:24;1.17;;;0.70;;
16531;SDS011;66872;63.142;14.482;2023-02-01T11:49:57;0.50;;;0.50;;
16531;SDS011;66872;63.142;14.482;2023-02-01T11:55:01;1.58;;;0.60;;
16531;SDS011;66872;63.142;14.482;2023-02-01T11:57:37;2.70;;;1.13;;
16531;SDS011;66872;63.142;14.482;2023-02-01T12:13:23;0.70;;;0.70;;
16531;SDS011;66872;63.142;14.482;2023-02-01T12:16:26;2.25;;;0.80;;
16531;SDS011;66872;63.142;14.482;2023-02-01T12:21:46;2.13;;;0.77;;
16531;SDS011;66872;63.142;14.482;2023-02-01T12:26:56;1.08;;;0.70;;
16531;SDS011;66872;63.142;14.482;2023-02-01T12:43:07;0.70;;;0.70;;
16531;SDS011;66872;63.142;14.482;2023-02-01T12:45:44;0.50;;;0.50;;
16531;SDS011;66872;63.142;14.482;2023-02-01T12:48:31;1.45;;;0.95;;
16531;SDS011;66872;63.142;14.482;2023-02-01T12:51:06;0.75;;;0.75;;
16531;SDS011;66872;63.142;14.482;2023-02-01T12:56:35;0.60;;;0.60;;
16531;SDS011;66872;63.142;14.482;2023-02-01T12:59:09;1.63;;;0.57;;
16531;SDS011;66872;63.142;14.482;2023-02-01T13:02:04;0.45;;;0.45;;
16531;SDS011;66872;63.142;14.482;2023-02-01T13:04:54;1.33;;;0.60;;
16531;SDS011;66872;63.142;14.482;2023-02-01T13:10:35;0.60;;;0.60;;
16531;SDS011;66872;63.142;14.482;2023-02-01T13:16:05;0.57;;;0.57;;
16531;SDS011;66872;63.142;14.482;2023-02-01T13:18:41;0.50;;;0.50;;
16531;SDS011;66872;63.142;14.482;2023-02-01T13:21:12;0.55;;;0.55;;
16531;SDS011;66872;63.142;14.482;2023-02-01T13:23:43;0.47;;;0.47;;
16531;SDS011;66872;63.142;14.482;2023-02-01T13:26:11;0.60;;;0.60;;
16531;SDS011;66872;63.142;14.482;2023-02-01T13:28:42;0.52;;;0.52;;
16531;SDS011;66872;63.142;14.482;2023-02-01T13:45:14;0.60;;;0.60;;
16531;SDS011;66872;63.142;14.482;2023-02-01T13:47:46;0.60;;;0.60;;
16531;SDS011;66872;63.142;14.482;2023-02-01T13:50:25;0.60;;;0.50;;
16531;SDS011;66872;63.142;14.482;2023-02-01T13:55:26;0.60;;;0.60;;
16531;SDS011;66872;63.142;14.482;2023-02-01T13:57:59;0.50;;;0.50;;
16531;SDS011;66872;63.142;14.482;2023-02-01T14:00:32;0.38;;;0.38;;
16531;SDS011;66872;63.142;14.482;2023-02-01T14:23:44;1.38;;;0.80;;
16531;SDS011;66872;63.142;14.482;2023-02-01T14:26:13;0.60;;;0.60;;
16531;SDS011;66872;63.142;14.482;2023-02-01T14:29:01;0.80;;;0.80;;
16531;SDS011;66872;63.142;14.482;2023-02-01T14:34:14;0.70;;;0.70;;
16531;SDS011;66872;63.142;14.482;2023-02-01T14:36:50;0.70;;;0.70;;
16531;SDS011;66872;63.142;14.482;2023-02-01T14:39:26;1.55;;;0.90;;
16531;SDS011;66872;63.142;14.482;2023-02-01T14:41:56;0.55;;;0.55;;
16531;SDS011;66872;63.142;14.482;2023-02-01T14:44:26;0.60;;;0.55;;
16531;SDS011;66872;63.142;14.482;2023-02-01T14:47:07;0.85;;;0.68;;
16531;SDS011;66872;63.142;14.482;2023-02-01T14:49:52;0.60;;;0.60;;
16531;SDS011;66872;63.142;14.482;2023-02-01T14:52:23;1.08;;;0.70;;
16531;SDS011;66872;63.142;14.482;2023-02-01T14:54:55;0.77;;;0.70;;
16531;SDS011;66872;63.142;14.482;2023-02-01T14:57:25;1.60;;;0.80;;
16531;SDS011;66872;63.142;14.482;2023-02-01T15:00:16;0.43;;;0.43;;
16531;SDS011;66872;63.142;14.482;2023-02-01T15:02:47;2.35;;;0.88;;
16531;SDS011;66872;63.142;14.482;2023-02-01T15:05:35;0.52;;;0.52;;
16531;SDS011;66872;63.142;14.482;2023-02-01T15:08:19;1.05;;;0.80;;
16531;SDS011;66872;63.142;14.482;2023-02-01T15:10:50;0.57;;;0.57;;
16531;SDS011;66872;63.142;14.482;2023-02-01T15:13:19;0.55;;;0.55;;
16531;SDS011;66872;63.142;14.482;2023-02-01T15:15:59;1.40;;;0.50;;
16531;SDS011;66872;63.142;14.482;2023-02-01T15:18:26;0.60;;;0.60;;
16531;SDS011;66872;63.142;14.482;2023-02-01T15:20:59;0.70;;;0.70;;
16531;SDS011;66872;63.142;14.482;2023-02-01T15:23:25;0.52;;;0.52;;
16531;SDS011;66872;63.142;14.482;2023-02-01T15:25:52;0.73;;;0.60;;
16531;SDS011;66872;63.142;14.482;2023-02-01T15:28:18;0.52;;;0.52;;
16531;SDS011;66872;63.142;14.482;2023-02-01T15:31:30;1.13;;;0.63;;
16531;SDS011;66872;63.142;14.482;2023-02-01T15:33:37;0.60;;;0.60;;
16531;SDS011;66872;63.142;14.482;2023-02-01T15:38:35;0.70;;;0.70;;
16531;SDS011;66872;63.142;14.482;2023-02-01T15:41:16;0.60;;;0.60;;
16531;SDS011;66872;63.142;14.482;2023-02-01T15:46:17;0.60;;;0.60;;
16531;SDS011;66872;63.142;14.482;2023-02-01T15:48:53;0.55;;;0.55;;
16531;SDS011;66872;63.142;14.482;2023-02-01T15:51:28;0.60;;;0.60;;
16531;SDS011;66872;63.142;14.482;2023-02-01T15:53:58;0.60;;;0.60;;
16531;SDS011;66872;63.142;14.482;2023-02-01T15:56:37;0.50;;;0.50;;
16531;SDS011;66872;63.142;14.482;2023-02-01T15:59:19;0.47;;;0.47;;
16531;SDS011;66872;63.142;14.482;2023-02-01T16:01:50;0.47;;;0.47;;
16531;SDS011;66872;63.142;14.482;2023-02-01T16:04:23;0.82;;;0.80;;
16531;SDS011;66872;63.142;14.482;2023-02-01T16:06:54;0.50;;;0.50;;
16531;SDS011;66872;63.142;14.482;2023-02-01T16:09:23;0.60;;;0.57;;
16531;SDS011;66872;63.142;14.482;2023-02-01T16:12:00;0.65;;;0.65;;
16531;SDS011;66872;63.142;14.482;2023-02-01T16:14:28;0.55;;;0.50;;
16531;SDS011;66872;63.142;14.482;2023-02-01T16:16:55;0.68;;;0.68;;
16531;SDS011;66872;63.142;14.482;2023-02-01T16:19:23;0.60;;;0.60;;
16531;SDS011;66872;63.142;14.482;2023-02-01T16:21:53;0.55;;;0.55;;
16531;SDS011;66872;63.142;14.482;2023-02-01T16:24:19;0.40;;;0.40;;
16531;SDS011;66872;63.142;14.482;2023-02-01T16:26:48;0.63;;;0.60;;
16531;SDS011;66872;63.142;14.482;2023-02-01T16:29:13;0.55;;;0.55;;
16531;SDS011;66872;63.142;14.482;2023-02-01T16:31:40;0.55;;;0.55;;
16531;SDS011;66872;63.142;14.482;2023-02-01T16:34:06;0.40;;;0.40;;
16531;SDS011;66872;63.142;14.482;2023-02-01T16:36:39;0.55;;;0.55;;
16531;SDS011;66872;63.142;14.482;2023-02-01T16:39:05;0.38;;;0.38;;
16531;SDS011;66872;63.142;14.482;2023-02-01T16:41:36;0.30;;;0.30;;
16531;SDS011;66872;63.142;14.482;2023-02-01T16:44:01;0.50;;;0.50;;
16531;SDS011;66872;63.142;14.482;2023-02-01T16:46:28;0.73;;;0.57;;
16531;SDS011;66872;63.142;14.482;2023-02-01T16:49:00;0.60;;;0.60;;
16531;SDS011;66872;63.142;14.482;2023-02-01T16:51:28;0.70;;;0.70;;
16531;SDS011;66872;63.142;14.482;2023-02-01T16:53:57;0.50;;;0.50;;
16531;SDS011;66872;63.142;14.482;2023-02-01T16:56:30;0.50;;;0.50;;
16531;SDS011;66872;63.142;14.482;2023-02-01T16:58:58;0.65;;;0.65;;
16531;SDS011;66872;63.142;14.482;2023-02-01T17:01:24;0.52;;;0.52;;
16531;SDS011;66872;63.142;14.482;2023-02-01T17:03:50;0.55;;;0.55;;
16531;SDS011;66872;63.142;14.482;2023-02-01T17:06:16;0.60;;;0.60;;
16531;SDS011;66872;63.142;14.482;2023-02-01T17:08:45;0.63;;;0.63;;
16531;SDS011;66872;63.142;14.482;2023-02-01T17:11:16;0.60;;;0.60;;
16531;SDS011;66872;63.142;14.482;2023-02-01T17:13:42;0.60;;;0.60;;
16531;SDS011;66872;63.142;14.482;2023-02-01T17:16:28;0.85;;;0.60;;
16531;SDS011;66872;63.142;14.482;2023-02-01T17:18:57;1.48;;;0.70;;
16531;SDS011;66872;63.142;14.482;2023-02-01T17:21:26;0.43;;;0.43;;
16531;SDS011;66872;63.142;14.482;2023-02-01T17:23:53;0.60;;;0.60;;
16531;SDS011;66872;63.142;14.482;2023-02-01T17:26:19;0.50;;;0.50;;
16531;SDS011;66872;63.142;14.482;2023-02-01T17:28:46;1.48;;;0.60;;
16531;SDS011;66872;63.142;14.482;2023-02-01T17:31:13;0.32;;;0.32;;